sensor_id;sensor_type;location;lat;lon;timestamp;temperature;humidity
4548;DHT22;2286;51.570;7.090;2023-04-09T00:00:43;6.30;99.90
4548;DHT22;2286;51.570;7.090;2023-04-09T00:03:10;6.20;1.00
4548;DHT22;2286;51.570;7.090;2023-04-09T00:05:38;6.20;45.00
4548;DHT22;2286;51.570;7.090;2023-04-09T00:08:05;6.10;99.90
4548;DHT22;2286;51.570;7.090;2023-04-09T00:10:32;6.10;99.90
4548;DHT22;2286;51.570;7.090;2023-04-09T00:12:59;6.10;1.00
4548;DHT22;2286;51.570;7.090;2023-04-09T00:15:27;6.00;1.00
4548;DHT22;2286;51.570;7.090;2023-04-09T00:17:54;6.00;1.00
4548;DHT22;2286;51.570;7.090;2023-04-09T00:20:21;6.00;43.90
4548;DHT22;2286;51.570;7.090;2023-04-09T00:22:48;5.90;99.90
4548;DHT22;2286;51.570;7.090;2023-04-09T00:25:16;5.90;99.90
4548;DHT22;2286;51.570;7.090;2023-04-09T00:27:43;5.80;99.90
4548;DHT22;2286;51.570;7.090;2023-04-09T00:30:10;5.70;99.90
4548;DHT22;2286;51.570;7.090;2023-04-09T00:32:38;5.70;99.90
4548;DHT22;2286;51.570;7.090;2023-04-09T00:35:05;5.60;99.90
4548;DHT22;2286;51.570;7.090;2023-04-09T00:37:32;5.50;99.90
4548;DHT22;2286;51.570;7.090;2023-04-09T00:39:59;5.50;99.90
4548;DHT22;2286;51.570;7.090;2023-04-09T00:42:26;5.50;99.90
4548;DHT22;2286;51.570;7.090;2023-04-09T00:44:53;5.50;99.90
4548;DHT22;2286;51.570;7.090;2023-04-09T00:47:19;5.50;99.90
4548;DHT22;2286;51.570;7.090;2023-04-09T00:49:48;5.40;99.90
4548;DHT22;2286;51.570;7.090;2023-04-09T00:52:15;5.40;99.90
4548;DHT22;2286;51.570;7.090;2023-04-09T00:54:42;5.30;99.90
4548;DHT22;2286;51.570;7.090;2023-04-09T00:57:08;5.20;99.90
4548;DHT22;2286;51.570;7.090;2023-04-09T00:59:37;5.20;99.90
4548;DHT22;2286;51.570;7.090;2023-04-09T01:02:04;5.20;99.90
4548;DHT22;2286;51.570;7.090;2023-04-09T01:04:31;5.20;99.90
4548;DHT22;2286;51.570;7.090;2023-04-09T01:07:04;5.20;99.90
4548;DHT22;2286;51.570;7.090;2023-04-09T01:09:35;5.30;99.90
4548;DHT22;2286;51.570;7.090;2023-04-09T01:12:10;5.20;99.90
4548;DHT22;2286;51.570;7.090;2023-04-09T01:14:46;5.20;99.90
4548;DHT22;2286;51.570;7.090;2023-04-09T01:17:23;5.20;99.90
4548;DHT22;2286;51.570;7.090;2023-04-09T01:19:57;5.20;99.90
4548;DHT22;2286;51.570;7.090;2023-04-09T01:22:39;5.10;99.90
4548;DHT22;2286;51.570;7.090;2023-04-09T01:25:14;5.10;99.90
4548;DHT22;2286;51.570;7.090;2023-04-09T01:27:54;5.00;99.90
4548;DHT22;2286;51.570;7.090;2023-04-09T01:30:25;5.00;99.90
4548;DHT22;2286;51.570;7.090;2023-04-09T01:32:53;4.90;99.90
4548;DHT22;2286;51.570;7.090;2023-04-09T01:35:22;4.90;99.90
4548;DHT22;2286;51.570;7.090;2023-04-09T01:37:51;4.90;99.90
4548;DHT22;2286;51.570;7.090;2023-04-09T01:40:18;4.80;99.90
4548;DHT22;2286;51.570;7.090;2023-04-09T01:42:46;4.80;99.90
4548;DHT22;2286;51.570;7.090;2023-04-09T01:45:14;4.80;99.90
4548;DHT22;2286;51.570;7.090;2023-04-09T01:47:43;4.80;99.90
4548;DHT22;2286;51.570;7.090;2023-04-09T01:50:10;4.70;99.90
4548;DHT22;2286;51.570;7.090;2023-04-09T01:52:37;4.70;99.90
4548;DHT22;2286;51.570;7.090;2023-04-09T01:55:05;4.70;99.90
4548;DHT22;2286;51.570;7.090;2023-04-09T01:57:32;4.70;99.90
4548;DHT22;2286;51.570;7.090;2023-04-09T01:59:59;4.60;99.90
4548;DHT22;2286;51.570;7.090;2023-04-09T02:02:33;4.60;99.90
4548;DHT22;2286;51.570;7.090;2023-04-09T02:05:06;4.60;99.90
4548;DHT22;2286;51.570;7.090;2023-04-09T02:07:37;4.50;99.90
4548;DHT22;2286;51.570;7.090;2023-04-09T02:10:06;4.50;99.90
4548;DHT22;2286;51.570;7.090;2023-04-09T02:12:36;4.50;99.90
4548;DHT22;2286;51.570;7.090;2023-04-09T02:15:05;4.40;99.90
4548;DHT22;2286;51.570;7.090;2023-04-09T02:17:32;4.40;99.90
4548;DHT22;2286;51.570;7.090;2023-04-09T02:19:59;4.40;99.90
4548;DHT22;2286;51.570;7.090;2023-04-09T02:22:27;4.30;99.90
4548;DHT22;2286;51.570;7.090;2023-04-09T02:24:54;4.20;99.90
4548;DHT22;2286;51.570;7.090;2023-04-09T02:27:21;4.20;99.90
4548;DHT22;2286;51.570;7.090;2023-04-09T02:29:48;4.20;99.90
4548;DHT22;2286;51.570;7.090;2023-04-09T02:32:15;4.20;99.90
4548;DHT22;2286;51.570;7.090;2023-04-09T02:34:41;4.20;99.90
4548;DHT22;2286;51.570;7.090;2023-04-09T02:37:08;4.10;99.90
4548;DHT22;2286;51.570;7.090;2023-04-09T02:39:36;4.10;99.90
4548;DHT22;2286;51.570;7.090;2023-04-09T02:42:03;4.10;99.90
4548;DHT22;2286;51.570;7.090;2023-04-09T02:44:32;4.10;99.90
4548;DHT22;2286;51.570;7.090;2023-04-09T02:46:59;3.90;99.90
4548;DHT22;2286;51.570;7.090;2023-04-09T02:49:26;3.90;99.90
4548;DHT22;2286;51.570;7.090;2023-04-09T02:51:53;3.90;99.90
4548;DHT22;2286;51.570;7.090;2023-04-09T02:54:19;3.80;99.90
4548;DHT22;2286;51.570;7.090;2023-04-09T02:56:48;3.80;99.90
4548;DHT22;2286;51.570;7.090;2023-04-09T02:59:15;3.80;99.90
4548;DHT22;2286;51.570;7.090;2023-04-09T03:01:41;3.80;99.90
4548;DHT22;2286;51.570;7.090;2023-04-09T03:04:08;3.70;99.90
4548;DHT22;2286;51.570;7.090;2023-04-09T03:06:35;3.70;99.90
4548;DHT22;2286;51.570;7.090;2023-04-09T03:09:02;3.60;99.90
4548;DHT22;2286;51.570;7.090;2023-04-09T03:11:28;3.60;99.90
4548;DHT22;2286;51.570;7.090;2023-04-09T03:13:56;3.60;99.90
4548;DHT22;2286;51.570;7.090;2023-04-09T03:16:23;3.60;99.90
4548;DHT22;2286;51.570;7.090;2023-04-09T03:18:50;3.60;99.90
4548;DHT22;2286;51.570;7.090;2023-04-09T03:21:17;3.50;99.90
4548;DHT22;2286;51.570;7.090;2023-04-09T03:23:44;3.50;99.90
4548;DHT22;2286;51.570;7.090;2023-04-09T03:26:11;3.50;99.90
4548;DHT22;2286;51.570;7.090;2023-04-09T03:28:37;3.50;99.90
4548;DHT22;2286;51.570;7.090;2023-04-09T03:31:05;3.50;99.90
4548;DHT22;2286;51.570;7.090;2023-04-09T03:33:32;3.50;99.90
4548;DHT22;2286;51.570;7.090;2023-04-09T03:35:59;3.40;99.90
4548;DHT22;2286;51.570;7.090;2023-04-09T03:38:26;3.50;99.90
4548;DHT22;2286;51.570;7.090;2023-04-09T03:40:52;3.40;99.90
4548;DHT22;2286;51.570;7.090;2023-04-09T03:43:19;3.40;99.90
4548;DHT22;2286;51.570;7.090;2023-04-09T03:45:46;3.40;99.90
4548;DHT22;2286;51.570;7.090;2023-04-09T03:48:14;3.40;99.90
4548;DHT22;2286;51.570;7.090;2023-04-09T03:50:41;3.30;99.90
4548;DHT22;2286;51.570;7.090;2023-04-09T03:53:08;3.40;99.90
4548;DHT22;2286;51.570;7.090;2023-04-09T03:55:36;3.30;99.90
4548;DHT22;2286;51.570;7.090;2023-04-09T03:58:03;3.40;99.90
4548;DHT22;2286;51.570;7.090;2023-04-09T04:00:29;3.30;99.90
4548;DHT22;2286;51.570;7.090;2023-04-09T04:02:56;3.30;99.90
4548;DHT22;2286;51.570;7.090;2023-04-09T04:05:24;3.30;99.90
4548;DHT22;2286;51.570;7.090;2023-04-09T04:07:51;3.20;99.90
4548;DHT22;2286;51.570;7.090;2023-04-09T04:10:18;3.30;99.90
4548;DHT22;2286;51.570;7.090;2023-04-09T04:12:45;3.20;99.90
4548;DHT22;2286;51.570;7.090;2023-04-09T04:15:12;3.20;99.90
4548;DHT22;2286;51.570;7.090;2023-04-09T04:17:39;3.20;99.90
4548;DHT22;2286;51.570;7.090;2023-04-09T04:20:07;3.10;99.90
4548;DHT22;2286;51.570;7.090;2023-04-09T04:22:35;3.10;99.90
4548;DHT22;2286;51.570;7.090;2023-04-09T04:25:02;3.10;99.90
4548;DHT22;2286;51.570;7.090;2023-04-09T04:27:29;3.10;99.90
4548;DHT22;2286;51.570;7.090;2023-04-09T04:29:56;3.10;99.90
4548;DHT22;2286;51.570;7.090;2023-04-09T04:32:24;3.00;99.90
4548;DHT22;2286;51.570;7.090;2023-04-09T04:34:51;3.00;99.90
4548;DHT22;2286;51.570;7.090;2023-04-09T04:37:18;3.10;99.90
4548;DHT22;2286;51.570;7.090;2023-04-09T04:39:46;3.00;99.90
4548;DHT22;2286;51.570;7.090;2023-04-09T04:42:13;3.00;99.90
4548;DHT22;2286;51.570;7.090;2023-04-09T04:44:40;3.00;99.90
4548;DHT22;2286;51.570;7.090;2023-04-09T04:47:06;2.90;99.90
4548;DHT22;2286;51.570;7.090;2023-04-09T04:49:33;2.90;99.90
4548;DHT22;2286;51.570;7.090;2023-04-09T04:52:00;2.90;99.90
4548;DHT22;2286;51.570;7.090;2023-04-09T04:54:27;2.90;99.90
4548;DHT22;2286;51.570;7.090;2023-04-09T04:56:55;2.90;99.90
4548;DHT22;2286;51.570;7.090;2023-04-09T04:59:21;2.90;99.90
4548;DHT22;2286;51.570;7.090;2023-04-09T05:01:48;3.00;99.90
4548;DHT22;2286;51.570;7.090;2023-04-09T05:04:15;2.90;99.90
4548;DHT22;2286;51.570;7.090;2023-04-09T05:06:42;2.90;99.90
4548;DHT22;2286;51.570;7.090;2023-04-09T05:09:08;2.90;99.90
4548;DHT22;2286;51.570;7.090;2023-04-09T05:11:35;2.90;99.90
4548;DHT22;2286;51.570;7.090;2023-04-09T05:14:03;2.90;99.90
4548;DHT22;2286;51.570;7.090;2023-04-09T05:16:30;2.90;99.90
4548;DHT22;2286;51.570;7.090;2023-04-09T05:18:57;3.00;99.90
4548;DHT22;2286;51.570;7.090;2023-04-09T05:21:24;3.00;99.90
4548;DHT22;2286;51.570;7.090;2023-04-09T05:23:52;3.00;99.90
4548;DHT22;2286;51.570;7.090;2023-04-09T05:26:18;3.00;99.90
4548;DHT22;2286;51.570;7.090;2023-04-09T05:28:45;3.10;99.90
4548;DHT22;2286;51.570;7.090;2023-04-09T05:31:14;3.10;99.90
4548;DHT22;2286;51.570;7.090;2023-04-09T05:33:41;3.20;99.90
4548;DHT22;2286;51.570;7.090;2023-04-09T05:36:13;3.20;99.90
4548;DHT22;2286;51.570;7.090;2023-04-09T05:38:40;3.20;99.90
4548;DHT22;2286;51.570;7.090;2023-04-09T05:41:06;3.30;99.90
4548;DHT22;2286;51.570;7.090;2023-04-09T05:43:33;3.30;99.90
4548;DHT22;2286;51.570;7.090;2023-04-09T05:46:00;3.30;99.90
4548;DHT22;2286;51.570;7.090;2023-04-09T05:48:28;3.40;99.90
4548;DHT22;2286;51.570;7.090;2023-04-09T05:50:55;3.40;99.90
4548;DHT22;2286;51.570;7.090;2023-04-09T05:53:22;3.50;99.90
4548;DHT22;2286;51.570;7.090;2023-04-09T05:55:48;3.50;99.90
4548;DHT22;2286;51.570;7.090;2023-04-09T05:58:16;3.60;99.90
4548;DHT22;2286;51.570;7.090;2023-04-09T06:00:44;3.60;99.90
4548;DHT22;2286;51.570;7.090;2023-04-09T06:03:11;3.70;99.90
4548;DHT22;2286;51.570;7.090;2023-04-09T06:05:39;3.70;99.90
4548;DHT22;2286;51.570;7.090;2023-04-09T06:08:05;3.80;99.90
4548;DHT22;2286;51.570;7.090;2023-04-09T06:10:32;3.80;99.90
4548;DHT22;2286;51.570;7.090;2023-04-09T06:12:59;3.90;99.90
4548;DHT22;2286;51.570;7.090;2023-04-09T06:15:26;3.90;99.90
4548;DHT22;2286;51.570;7.090;2023-04-09T06:17:53;4.00;99.90
4548;DHT22;2286;51.570;7.090;2023-04-09T06:20:20;4.10;99.90
4548;DHT22;2286;51.570;7.090;2023-04-09T06:22:48;4.10;99.90
4548;DHT22;2286;51.570;7.090;2023-04-09T06:25:15;4.20;99.90
4548;DHT22;2286;51.570;7.090;2023-04-09T06:27:42;4.30;99.90
4548;DHT22;2286;51.570;7.090;2023-04-09T06:30:10;4.30;99.90
4548;DHT22;2286;51.570;7.090;2023-04-09T06:32:37;4.40;99.90
4548;DHT22;2286;51.570;7.090;2023-04-09T06:35:04;4.50;99.90
4548;DHT22;2286;51.570;7.090;2023-04-09T06:37:32;4.50;99.90
4548;DHT22;2286;51.570;7.090;2023-04-09T06:40:01;4.60;99.90
4548;DHT22;2286;51.570;7.090;2023-04-09T06:42:28;4.70;99.90
4548;DHT22;2286;51.570;7.090;2023-04-09T06:44:55;4.80;99.90
4548;DHT22;2286;51.570;7.090;2023-04-09T06:47:22;4.80;99.90
4548;DHT22;2286;51.570;7.090;2023-04-09T06:49:48;4.90;99.90
4548;DHT22;2286;51.570;7.090;2023-04-09T06:52:16;4.90;99.90
4548;DHT22;2286;51.570;7.090;2023-04-09T06:54:42;5.00;99.90
4548;DHT22;2286;51.570;7.090;2023-04-09T06:57:11;5.10;99.90
4548;DHT22;2286;51.570;7.090;2023-04-09T06:59:38;5.10;99.90
4548;DHT22;2286;51.570;7.090;2023-04-09T07:02:05;5.20;99.90
4548;DHT22;2286;51.570;7.090;2023-04-09T07:04:33;5.30;99.90
4548;DHT22;2286;51.570;7.090;2023-04-09T07:07:00;5.40;99.90
4548;DHT22;2286;51.570;7.090;2023-04-09T07:09:27;5.50;99.90
4548;DHT22;2286;51.570;7.090;2023-04-09T07:11:54;5.50;99.90
4548;DHT22;2286;51.570;7.090;2023-04-09T07:14:22;5.60;99.90
4548;DHT22;2286;51.570;7.090;2023-04-09T07:16:49;5.70;99.90
4548;DHT22;2286;51.570;7.090;2023-04-09T07:19:16;5.70;99.90
4548;DHT22;2286;51.570;7.090;2023-04-09T07:21:43;5.80;99.90
4548;DHT22;2286;51.570;7.090;2023-04-09T07:24:09;5.90;99.90
4548;DHT22;2286;51.570;7.090;2023-04-09T07:26:36;6.00;99.90
4548;DHT22;2286;51.570;7.090;2023-04-09T07:29:03;6.10;99.90
4548;DHT22;2286;51.570;7.090;2023-04-09T07:31:31;6.20;99.90
4548;DHT22;2286;51.570;7.090;2023-04-09T07:33:58;6.20;99.90
4548;DHT22;2286;51.570;7.090;2023-04-09T07:36:25;6.30;99.90
4548;DHT22;2286;51.570;7.090;2023-04-09T07:38:52;6.40;99.90
4548;DHT22;2286;51.570;7.090;2023-04-09T07:41:19;6.50;99.90
4548;DHT22;2286;51.570;7.090;2023-04-09T07:43:46;6.60;99.90
4548;DHT22;2286;51.570;7.090;2023-04-09T07:46:17;6.70;99.90
4548;DHT22;2286;51.570;7.090;2023-04-09T07:48:46;6.80;99.90
4548;DHT22;2286;51.570;7.090;2023-04-09T07:51:14;6.90;99.90
4548;DHT22;2286;51.570;7.090;2023-04-09T07:53:41;7.00;99.90
4548;DHT22;2286;51.570;7.090;2023-04-09T07:56:07;7.10;99.90
4548;DHT22;2286;51.570;7.090;2023-04-09T07:58:35;7.30;99.90
4548;DHT22;2286;51.570;7.090;2023-04-09T08:01:03;7.40;48.20
4548;DHT22;2286;51.570;7.090;2023-04-09T08:03:30;7.60;1.00
4548;DHT22;2286;51.570;7.090;2023-04-09T08:05:58;7.70;1.00
4548;DHT22;2286;51.570;7.090;2023-04-09T08:08:25;7.80;99.90
4548;DHT22;2286;51.570;7.090;2023-04-09T08:10:52;7.90;99.90
4548;DHT22;2286;51.570;7.090;2023-04-09T08:13:19;8.00;12.60
4548;DHT22;2286;51.570;7.090;2023-04-09T08:15:48;8.20;99.90
4548;DHT22;2286;51.570;7.090;2023-04-09T08:18:15;8.30;1.00
4548;DHT22;2286;51.570;7.090;2023-04-09T08:20:42;8.50;99.90
4548;DHT22;2286;51.570;7.090;2023-04-09T08:23:11;8.70;99.90
4548;DHT22;2286;51.570;7.090;2023-04-09T08:25:37;8.80;99.90
4548;DHT22;2286;51.570;7.090;2023-04-09T08:28:04;9.00;1.00
4548;DHT22;2286;51.570;7.090;2023-04-09T08:30:31;9.10;1.00
4548;DHT22;2286;51.570;7.090;2023-04-09T08:32:58;9.40;99.90
4548;DHT22;2286;51.570;7.090;2023-04-09T08:35:25;9.60;1.00
4548;DHT22;2286;51.570;7.090;2023-04-09T08:37:53;9.80;1.00
4548;DHT22;2286;51.570;7.090;2023-04-09T08:40:22;9.90;95.60
4548;DHT22;2286;51.570;7.090;2023-04-09T08:42:53;10.00;1.00
4548;DHT22;2286;51.570;7.090;2023-04-09T08:45:21;10.20;1.00
4548;DHT22;2286;51.570;7.090;2023-04-09T08:47:49;10.30;99.90
4548;DHT22;2286;51.570;7.090;2023-04-09T08:50:17;10.40;99.90
4548;DHT22;2286;51.570;7.090;2023-04-09T08:52:45;10.60;99.90
4548;DHT22;2286;51.570;7.090;2023-04-09T08:55:13;10.80;99.90
4548;DHT22;2286;51.570;7.090;2023-04-09T08:57:41;10.90;99.90
4548;DHT22;2286;51.570;7.090;2023-04-09T09:00:09;11.10;1.00
4548;DHT22;2286;51.570;7.090;2023-04-09T09:02:36;11.20;1.00
4548;DHT22;2286;51.570;7.090;2023-04-09T09:05:04;11.30;99.90
4548;DHT22;2286;51.570;7.090;2023-04-09T09:07:31;11.40;99.90
4548;DHT22;2286;51.570;7.090;2023-04-09T09:09:59;11.40;99.90
4548;DHT22;2286;51.570;7.090;2023-04-09T09:12:35;11.70;99.90
4548;DHT22;2286;51.570;7.090;2023-04-09T09:15:05;11.90;99.90
4548;DHT22;2286;51.570;7.090;2023-04-09T09:17:54;12.00;99.90
4548;DHT22;2286;51.570;7.090;2023-04-09T09:20:22;12.10;99.90
4548;DHT22;2286;51.570;7.090;2023-04-09T09:22:51;12.20;99.90
4548;DHT22;2286;51.570;7.090;2023-04-09T09:25:19;12.30;99.90
4548;DHT22;2286;51.570;7.090;2023-04-09T09:27:48;12.40;99.90
4548;DHT22;2286;51.570;7.090;2023-04-09T09:30:21;12.50;99.90
4548;DHT22;2286;51.570;7.090;2023-04-09T09:32:51;12.60;99.90
4548;DHT22;2286;51.570;7.090;2023-04-09T09:35:18;13.00;99.90
4548;DHT22;2286;51.570;7.090;2023-04-09T09:37:45;13.40;99.90
4548;DHT22;2286;51.570;7.090;2023-04-09T09:40:25;13.70;99.90
4548;DHT22;2286;51.570;7.090;2023-04-09T09:42:54;13.70;99.90
4548;DHT22;2286;51.570;7.090;2023-04-09T09:45:23;13.60;99.90
4548;DHT22;2286;51.570;7.090;2023-04-09T09:47:51;13.50;99.90
4548;DHT22;2286;51.570;7.090;2023-04-09T09:50:19;13.60;99.90
4548;DHT22;2286;51.570;7.090;2023-04-09T09:52:50;13.90;99.90
4548;DHT22;2286;51.570;7.090;2023-04-09T09:55:20;14.60;99.90
4548;DHT22;2286;51.570;7.090;2023-04-09T09:57:50;14.90;99.90
4548;DHT22;2286;51.570;7.090;2023-04-09T10:00:18;15.00;99.90
4548;DHT22;2286;51.570;7.090;2023-04-09T10:02:54;14.90;99.90
4548;DHT22;2286;51.570;7.090;2023-04-09T10:05:22;15.20;99.90
4548;DHT22;2286;51.570;7.090;2023-04-09T10:07:52;15.80;99.90
4548;DHT22;2286;51.570;7.090;2023-04-09T10:10:19;16.50;99.90
4548;DHT22;2286;51.570;7.090;2023-04-09T10:12:47;17.30;99.90
4548;DHT22;2286;51.570;7.090;2023-04-09T10:15:14;18.20;99.90
4548;DHT22;2286;51.570;7.090;2023-04-09T10:17:41;18.80;99.90
4548;DHT22;2286;51.570;7.090;2023-04-09T10:20:14;18.50;99.90
4548;DHT22;2286;51.570;7.090;2023-04-09T10:22:45;18.80;99.90
4548;DHT22;2286;51.570;7.090;2023-04-09T10:25:13;18.70;99.90
4548;DHT22;2286;51.570;7.090;2023-04-09T10:27:41;18.70;99.90
4548;DHT22;2286;51.570;7.090;2023-04-09T10:30:30;19.50;99.90
4548;DHT22;2286;51.570;7.090;2023-04-09T10:33:07;20.00;99.90
4548;DHT22;2286;51.570;7.090;2023-04-09T10:35:36;19.10;99.90
4548;DHT22;2286;51.570;7.090;2023-04-09T10:38:05;18.80;99.90
4548;DHT22;2286;51.570;7.090;2023-04-09T10:40:33;19.50;99.90
4548;DHT22;2286;51.570;7.090;2023-04-09T10:43:01;20.80;99.90
4548;DHT22;2286;51.570;7.090;2023-04-09T10:45:39;21.80;99.90
4548;DHT22;2286;51.570;7.090;2023-04-09T10:48:10;22.40;99.90
4548;DHT22;2286;51.570;7.090;2023-04-09T10:50:42;22.50;99.90
4548;DHT22;2286;51.570;7.090;2023-04-09T10:53:21;23.00;99.90
4548;DHT22;2286;51.570;7.090;2023-04-09T10:55:49;21.10;99.90
4548;DHT22;2286;51.570;7.090;2023-04-09T10:58:16;20.70;99.90
4548;DHT22;2286;51.570;7.090;2023-04-09T11:00:44;21.20;99.90
4548;DHT22;2286;51.570;7.090;2023-04-09T11:03:22;21.50;99.90
4548;DHT22;2286;51.570;7.090;2023-04-09T11:05:58;21.20;99.90
4548;DHT22;2286;51.570;7.090;2023-04-09T11:08:28;20.90;99.90
4548;DHT22;2286;51.570;7.090;2023-04-09T11:10:55;20.80;99.90
4548;DHT22;2286;51.570;7.090;2023-04-09T11:13:25;20.90;99.90
4548;DHT22;2286;51.570;7.090;2023-04-09T11:15:53;21.20;99.90
4548;DHT22;2286;51.570;7.090;2023-04-09T11:18:22;20.60;99.90
4548;DHT22;2286;51.570;7.090;2023-04-09T11:20:49;19.90;99.90
4548;DHT22;2286;51.570;7.090;2023-04-09T11:23:20;19.50;99.90
4548;DHT22;2286;51.570;7.090;2023-04-09T11:25:48;19.50;99.90
4548;DHT22;2286;51.570;7.090;2023-04-09T11:28:16;20.60;99.90
4548;DHT22;2286;51.570;7.090;2023-04-09T11:30:43;22.60;99.90
4548;DHT22;2286;51.570;7.090;2023-04-09T11:33:11;24.50;99.90
4548;DHT22;2286;51.570;7.090;2023-04-09T11:35:38;24.90;99.90
4548;DHT22;2286;51.570;7.090;2023-04-09T11:38:06;24.50;99.90
4548;DHT22;2286;51.570;7.090;2023-04-09T11:40:35;23.60;99.90
4548;DHT22;2286;51.570;7.090;2023-04-09T11:43:02;24.20;99.90
4548;DHT22;2286;51.570;7.090;2023-04-09T11:45:29;25.00;99.90
4548;DHT22;2286;51.570;7.090;2023-04-09T11:47:57;26.40;99.90
4548;DHT22;2286;51.570;7.090;2023-04-09T11:50:24;27.00;99.90
4548;DHT22;2286;51.570;7.090;2023-04-09T11:52:51;26.80;99.90
4548;DHT22;2286;51.570;7.090;2023-04-09T11:55:27;27.10;99.90
4548;DHT22;2286;51.570;7.090;2023-04-09T11:57:58;28.10;99.90
4548;DHT22;2286;51.570;7.090;2023-04-09T12:00:26;28.50;99.90
4548;DHT22;2286;51.570;7.090;2023-04-09T12:02:59;27.70;99.90
4548;DHT22;2286;51.570;7.090;2023-04-09T12:05:28;26.60;99.90
4548;DHT22;2286;51.570;7.090;2023-04-09T12:07:57;24.90;99.90
4548;DHT22;2286;51.570;7.090;2023-04-09T12:10:26;24.60;99.90
4548;DHT22;2286;51.570;7.090;2023-04-09T12:12:53;25.20;99.90
4548;DHT22;2286;51.570;7.090;2023-04-09T12:15:24;26.40;99.90
4548;DHT22;2286;51.570;7.090;2023-04-09T12:17:54;26.50;99.90
4548;DHT22;2286;51.570;7.090;2023-04-09T12:20:28;26.20;99.90
4548;DHT22;2286;51.570;7.090;2023-04-09T12:22:56;25.70;99.90
4548;DHT22;2286;51.570;7.090;2023-04-09T12:25:24;26.40;99.90
4548;DHT22;2286;51.570;7.090;2023-04-09T12:27:51;25.80;99.90
4548;DHT22;2286;51.570;7.090;2023-04-09T12:30:18;25.00;99.90
4548;DHT22;2286;51.570;7.090;2023-04-09T12:32:46;24.40;99.90
4548;DHT22;2286;51.570;7.090;2023-04-09T12:35:13;25.20;99.90
4548;DHT22;2286;51.570;7.090;2023-04-09T12:37:41;26.60;99.90
4548;DHT22;2286;51.570;7.090;2023-04-09T12:40:08;28.40;99.90
4548;DHT22;2286;51.570;7.090;2023-04-09T12:42:38;28.80;99.90
4548;DHT22;2286;51.570;7.090;2023-04-09T12:45:06;29.60;99.90
4548;DHT22;2286;51.570;7.090;2023-04-09T12:47:33;29.00;99.90
4548;DHT22;2286;51.570;7.090;2023-04-09T12:50:02;28.80;99.90
4548;DHT22;2286;51.570;7.090;2023-04-09T12:52:28;28.20;99.90
4548;DHT22;2286;51.570;7.090;2023-04-09T12:54:55;27.10;99.90
4548;DHT22;2286;51.570;7.090;2023-04-09T12:57:22;26.10;99.90
4548;DHT22;2286;51.570;7.090;2023-04-09T12:59:49;24.80;99.90
4548;DHT22;2286;51.570;7.090;2023-04-09T13:02:15;24.10;99.90
4548;DHT22;2286;51.570;7.090;2023-04-09T13:04:42;24.70;99.90
4548;DHT22;2286;51.570;7.090;2023-04-09T13:07:11;26.70;99.90
4548;DHT22;2286;51.570;7.090;2023-04-09T13:09:40;27.30;99.90
4548;DHT22;2286;51.570;7.090;2023-04-09T13:12:07;27.20;99.90
4548;DHT22;2286;51.570;7.090;2023-04-09T13:14:33;28.60;99.90
4548;DHT22;2286;51.570;7.090;2023-04-09T13:17:00;29.50;99.90
4548;DHT22;2286;51.570;7.090;2023-04-09T13:19:27;29.90;99.90
4548;DHT22;2286;51.570;7.090;2023-04-09T13:21:54;29.80;99.90
4548;DHT22;2286;51.570;7.090;2023-04-09T13:24:22;30.40;99.90
4548;DHT22;2286;51.570;7.090;2023-04-09T13:26:49;29.50;99.90
4548;DHT22;2286;51.570;7.090;2023-04-09T13:29:16;28.50;99.90
4548;DHT22;2286;51.570;7.090;2023-04-09T13:31:43;29.40;99.90
4548;DHT22;2286;51.570;7.090;2023-04-09T13:34:10;30.40;99.90
4548;DHT22;2286;51.570;7.090;2023-04-09T13:36:36;29.80;99.90
4548;DHT22;2286;51.570;7.090;2023-04-09T13:39:03;28.10;99.90
4548;DHT22;2286;51.570;7.090;2023-04-09T13:41:32;26.70;99.90
4548;DHT22;2286;51.570;7.090;2023-04-09T13:43:59;26.10;99.90
4548;DHT22;2286;51.570;7.090;2023-04-09T13:46:27;25.80;99.90
4548;DHT22;2286;51.570;7.090;2023-04-09T13:48:54;25.60;99.90
4548;DHT22;2286;51.570;7.090;2023-04-09T13:51:20;26.00;99.90
4548;DHT22;2286;51.570;7.090;2023-04-09T13:53:47;25.90;99.90
4548;DHT22;2286;51.570;7.090;2023-04-09T13:56:14;28.20;99.90
4548;DHT22;2286;51.570;7.090;2023-04-09T13:58:43;30.00;99.90
4548;DHT22;2286;51.570;7.090;2023-04-09T14:01:10;30.50;99.90
4548;DHT22;2286;51.570;7.090;2023-04-09T14:03:37;31.00;99.90
4548;DHT22;2286;51.570;7.090;2023-04-09T14:06:05;30.80;99.90
4548;DHT22;2286;51.570;7.090;2023-04-09T14:08:33;30.70;99.90
4548;DHT22;2286;51.570;7.090;2023-04-09T14:11:00;29.70;99.90
4548;DHT22;2286;51.570;7.090;2023-04-09T14:13:27;29.70;99.90
4548;DHT22;2286;51.570;7.090;2023-04-09T14:15:55;29.90;99.90
4548;DHT22;2286;51.570;7.090;2023-04-09T14:18:22;30.40;99.90
4548;DHT22;2286;51.570;7.090;2023-04-09T14:20:49;31.30;99.90
4548;DHT22;2286;51.570;7.090;2023-04-09T14:23:16;32.20;99.90
4548;DHT22;2286;51.570;7.090;2023-04-09T14:25:43;32.70;99.90
4548;DHT22;2286;51.570;7.090;2023-04-09T14:28:10;32.50;99.90
4548;DHT22;2286;51.570;7.090;2023-04-09T14:30:36;31.50;99.90
4548;DHT22;2286;51.570;7.090;2023-04-09T14:33:05;31.50;99.90
4548;DHT22;2286;51.570;7.090;2023-04-09T14:35:32;31.40;99.90
4548;DHT22;2286;51.570;7.090;2023-04-09T14:37:58;30.70;99.90
4548;DHT22;2286;51.570;7.090;2023-04-09T14:40:26;30.20;99.90
4548;DHT22;2286;51.570;7.090;2023-04-09T14:42:52;30.30;99.90
4548;DHT22;2286;51.570;7.090;2023-04-09T14:45:19;30.30;99.90
4548;DHT22;2286;51.570;7.090;2023-04-09T14:47:46;30.40;99.90
4548;DHT22;2286;51.570;7.090;2023-04-09T14:50:14;31.60;99.90
4548;DHT22;2286;51.570;7.090;2023-04-09T14:52:41;31.70;99.90
4548;DHT22;2286;51.570;7.090;2023-04-09T14:55:09;32.10;99.90
4548;DHT22;2286;51.570;7.090;2023-04-09T14:57:37;33.00;99.90
4548;DHT22;2286;51.570;7.090;2023-04-09T15:00:06;33.60;99.90
4548;DHT22;2286;51.570;7.090;2023-04-09T15:02:33;33.20;99.90
4548;DHT22;2286;51.570;7.090;2023-04-09T15:05:00;33.30;99.90
4548;DHT22;2286;51.570;7.090;2023-04-09T15:07:29;33.40;99.90
4548;DHT22;2286;51.570;7.090;2023-04-09T15:09:56;34.20;99.90
4548;DHT22;2286;51.570;7.090;2023-04-09T15:12:24;34.40;99.90
4548;DHT22;2286;51.570;7.090;2023-04-09T15:14:51;34.30;99.90
4548;DHT22;2286;51.570;7.090;2023-04-09T15:17:18;32.80;99.90
4548;DHT22;2286;51.570;7.090;2023-04-09T15:19:45;32.80;99.90
4548;DHT22;2286;51.570;7.090;2023-04-09T15:22:12;31.50;99.90
4548;DHT22;2286;51.570;7.090;2023-04-09T15:24:40;31.50;99.90
4548;DHT22;2286;51.570;7.090;2023-04-09T15:27:07;30.10;99.90
4548;DHT22;2286;51.570;7.090;2023-04-09T15:29:34;28.20;99.90
4548;DHT22;2286;51.570;7.090;2023-04-09T15:32:01;26.70;99.90
4548;DHT22;2286;51.570;7.090;2023-04-09T15:34:28;25.90;99.90
4548;DHT22;2286;51.570;7.090;2023-04-09T15:36:54;27.30;99.90
4548;DHT22;2286;51.570;7.090;2023-04-09T15:39:21;27.40;99.90
4548;DHT22;2286;51.570;7.090;2023-04-09T15:41:50;26.60;99.90
4548;DHT22;2286;51.570;7.090;2023-04-09T15:44:17;25.50;99.90
4548;DHT22;2286;51.570;7.090;2023-04-09T15:46:43;26.90;99.90
4548;DHT22;2286;51.570;7.090;2023-04-09T15:49:10;28.50;99.90
4548;DHT22;2286;51.570;7.090;2023-04-09T15:51:37;29.80;99.90
4548;DHT22;2286;51.570;7.090;2023-04-09T15:54:04;30.40;99.90
4548;DHT22;2286;51.570;7.090;2023-04-09T15:56:31;30.90;99.90
4548;DHT22;2286;51.570;7.090;2023-04-09T15:59:01;30.00;99.90
4548;DHT22;2286;51.570;7.090;2023-04-09T16:01:29;29.50;99.90
4548;DHT22;2286;51.570;7.090;2023-04-09T16:03:56;30.70;99.90
4548;DHT22;2286;51.570;7.090;2023-04-09T16:06:24;30.00;99.90
4548;DHT22;2286;51.570;7.090;2023-04-09T16:08:51;29.20;99.90
4548;DHT22;2286;51.570;7.090;2023-04-09T16:11:18;29.00;99.90
4548;DHT22;2286;51.570;7.090;2023-04-09T16:13:45;29.70;99.90
4548;DHT22;2286;51.570;7.090;2023-04-09T16:16:13;29.90;99.90